createdAt,value
2018-04-18T03:32:34.284Z,9.82
2018-04-18T03:35:08.893Z,11.25
2018-04-18T03:37:42.661Z,11.63
2018-04-18T03:40:16.818Z,11.23
2018-04-18T03:42:50.604Z,11.85
2018-04-18T03:45:24.478Z,10.90
2018-04-18T03:47:58.252Z,10.95
2018-04-18T03:50:32.953Z,10.82
2018-04-18T03:53:07.072Z,12.60
2018-04-18T03:55:40.819Z,12.57
2018-04-18T03:58:36.001Z,11.45
2018-04-18T04:01:09.807Z,12.77
2018-04-18T04:03:43.691Z,14.93
2018-04-18T04:06:17.496Z,12.82
2018-04-18T04:08:51.338Z,12.98
2018-04-18T04:11:25.102Z,12.70
2018-04-18T04:13:58.834Z,12.30
2018-04-18T04:19:42.834Z,14.13
2018-04-18T04:22:28.672Z,13.20
2018-04-18T04:25:02.503Z,13.60
2018-04-18T04:27:36.302Z,13.10
2018-04-18T04:30:10.171Z,12.50
2018-04-18T04:32:44.042Z,13.02
2018-04-18T04:35:17.806Z,12.75
2018-04-18T04:37:52.422Z,14.30
2018-04-18T04:40:27.275Z,12.35
2018-04-18T04:43:00.987Z,13.95
2018-04-18T04:45:34.819Z,12.37
2018-04-18T04:48:09.375Z,15.10
2018-04-18T04:50:43.936Z,13.65
2018-04-18T04:53:17.695Z,14.25
2018-04-18T04:55:52.264Z,14.75
2018-04-18T04:58:26.865Z,13.15
2018-04-18T05:01:00.726Z,14.02
2018-04-18T05:03:35.412Z,14.30
2018-04-18T05:06:10.059Z,15.52
2018-04-18T05:08:43.817Z,14.93
2018-04-18T05:11:17.699Z,14.30
2018-04-18T05:13:52.294Z,12.98
2018-04-18T05:16:26.011Z,13.27
2018-04-18T05:18:59.756Z,15.13
2018-04-18T05:21:34.700Z,13.57
2018-04-18T05:24:08.432Z,11.90
2018-04-18T05:26:42.160Z,15.18
2018-04-18T05:29:15.933Z,13.80
2018-04-18T05:31:52.720Z,14.10
2018-04-18T05:34:26.484Z,15.02
2018-04-18T05:37:00.966Z,15.07
2018-04-18T05:39:40.226Z,16.67
2018-04-18T05:42:14.156Z,14.90
2018-04-18T05:44:48.316Z,14.73
2018-04-18T05:47:22.123Z,16.75
2018-04-18T05:49:56.008Z,15.40
2018-04-18T05:52:29.870Z,15.55
2018-04-18T05:55:03.708Z,15.18
2018-04-18T05:57:37.602Z,16.75
2018-04-18T06:00:12.144Z,18.23
2018-04-18T06:02:46.083Z,15.77
2018-04-18T06:05:19.751Z,15.70
2018-04-18T06:07:54.340Z,15.13
2018-04-18T06:10:28.219Z,16.45
2018-04-18T06:13:01.922Z,15.13
2018-04-18T06:15:36.534Z,15.35
2018-04-18T06:18:11.123Z,15.75
2018-04-18T06:20:44.967Z,14.20
2018-04-18T06:23:18.929Z,14.70
2018-04-18T06:25:52.826Z,15.18
2018-04-18T06:28:26.761Z,15.18
2018-04-18T06:31:01.313Z,16.45
2018-04-18T06:33:35.373Z,16.95
2018-04-18T06:36:09.209Z,15.65
2018-04-18T06:38:44.798Z,15.55
2018-04-18T06:41:18.690Z,13.75
2018-04-18T06:43:52.535Z,16.33
2018-04-18T06:46:27.122Z,14.10
2018-04-18T06:49:00.890Z,15.52
2018-04-18T06:51:34.680Z,15.52
2018-04-18T06:54:08.564Z,15.05
2018-04-18T06:56:43.159Z,14.27
2018-04-18T06:59:16.774Z,15.73
2018-04-18T07:01:51.407Z,16.20
2018-04-18T07:04:25.211Z,15.70
2018-04-18T07:06:59.215Z,15.05
2018-04-18T07:09:33.006Z,14.85
2018-04-18T07:12:07.542Z,15.20
2018-04-18T07:14:41.347Z,15.98
2018-04-18T07:17:15.202Z,15.88
2018-04-18T07:19:49.761Z,15.55
2018-04-18T07:22:23.894Z,15.98
2018-04-18T07:24:58.387Z,16.55
2018-04-18T07:27:32.965Z,15.95
2018-04-18T07:30:07.551Z,17.55
2018-04-18T07:32:41.261Z,16.50
2018-04-18T07:35:15.070Z,17.77
2018-04-18T07:37:49.199Z,17.30
2018-04-18T07:40:23.003Z,18.45
2018-04-18T07:42:56.826Z,18.95
2018-04-18T07:45:30.604Z,18.25
2018-04-18T07:48:04.451Z,21.45
2018-04-18T07:50:38.214Z,17.80
2018-04-18T07:53:11.965Z,19.08
2018-04-18T07:55:45.830Z,17.30
2018-04-18T07:58:20.342Z,18.00
2018-04-18T08:00:55.285Z,18.05
2018-04-18T08:03:29.110Z,18.52
2018-04-18T08:06:03.678Z,18.42
2018-04-18T08:08:37.456Z,18.27
2018-04-18T08:11:12.766Z,18.87
2018-04-18T08:13:46.582Z,19.33
2018-04-18T08:16:21.187Z,17.67
2018-04-18T08:18:55.811Z,17.00
2018-04-18T08:21:31.459Z,17.95
2018-04-18T08:24:06.270Z,17.62
2018-04-18T08:26:40.111Z,18.55
2018-04-18T08:29:13.954Z,22.23
2018-04-18T08:31:47.693Z,18.53
2018-04-18T08:34:22.321Z,14.93
2018-04-18T08:36:56.859Z,19.27
2018-04-18T08:39:30.722Z,16.13
2018-04-18T08:42:05.099Z,14.00
2018-04-18T08:44:39.721Z,16.23
2018-04-18T08:47:13.749Z,16.23
2018-04-18T08:49:47.540Z,16.70
2018-04-18T08:52:21.246Z,13.83
2018-04-18T08:54:55.877Z,14.67
2018-04-18T08:57:29.578Z,15.70
2018-04-18T09:00:03.390Z,14.20
2018-04-18T09:02:37.211Z,14.67
2018-04-18T09:05:10.998Z,13.80
2018-04-18T09:07:45.354Z,13.67
2018-04-18T09:10:19.055Z,13.43
2018-04-18T09:12:52.971Z,13.40
2018-04-18T09:15:26.709Z,15.20
2018-04-18T09:18:01.266Z,13.27
2018-04-18T09:20:34.958Z,13.60
2018-04-18T09:23:09.050Z,13.80
2018-04-18T09:25:42.768Z,13.07
2018-04-18T09:28:16.508Z,12.30
2018-04-18T09:30:51.180Z,12.30
2018-04-18T09:33:25.980Z,12.97
2018-04-18T09:35:59.819Z,10.77
2018-04-18T09:38:33.534Z,10.80
2018-04-18T09:41:07.287Z,9.87
2018-04-18T09:43:41.127Z,9.40
2018-04-18T09:46:14.741Z,9.90
2018-04-18T09:48:48.495Z,10.07
2018-04-18T09:51:22.237Z,11.77
2018-04-18T09:53:55.963Z,8.67
2018-04-18T09:56:29.676Z,7.97
2018-04-18T09:59:03.387Z,6.43
2018-04-18T10:01:43.195Z,6.77
2018-04-18T10:04:23.675Z,6.97
2018-04-18T10:06:58.405Z,7.00
2018-04-18T10:09:33.905Z,7.37
2018-04-18T10:12:08.799Z,6.53
2018-04-18T10:14:42.619Z,6.43
2018-04-18T10:17:16.473Z,6.33
2018-04-18T10:19:50.227Z,6.70
2018-04-18T10:22:24.150Z,7.73
2018-04-18T10:24:58.739Z,6.60
2018-04-18T10:27:32.560Z,7.30
2018-04-18T10:30:07.946Z,7.20
2018-04-18T10:32:41.619Z,6.57
2018-04-18T10:35:15.803Z,6.03
2018-04-18T10:37:49.989Z,6.10
2018-04-18T10:40:24.509Z,6.83
2018-04-18T10:42:58.376Z,5.77
2018-04-18T10:45:32.256Z,6.00
2018-04-18T10:48:06.135Z,5.60
2018-04-18T10:50:39.908Z,5.63
2018-04-18T10:53:13.710Z,5.50
2018-04-18T10:55:47.462Z,4.77
2018-04-18T10:58:22.125Z,5.23
2018-04-18T11:00:55.814Z,5.97
2018-04-18T11:03:30.483Z,5.00
2018-04-18T11:06:04.137Z,5.60
2018-04-18T11:08:37.950Z,7.30
2018-04-18T11:11:11.631Z,6.90
2018-04-18T11:13:47.176Z,6.80
2018-04-18T11:16:20.958Z,5.40
2018-04-18T11:18:54.802Z,5.30
2018-04-18T11:21:29.299Z,6.00
2018-04-18T11:24:03.201Z,4.50
2018-04-18T11:26:37.620Z,5.60
2018-04-18T11:29:11.500Z,5.30
2018-04-18T11:31:45.074Z,4.60
2018-04-18T11:34:18.885Z,4.40
2018-04-18T11:36:52.644Z,4.40
2018-04-18T11:39:27.499Z,4.83
2018-04-18T11:42:01.283Z,4.60
2018-04-18T11:44:35.770Z,4.87
2018-04-18T11:47:09.416Z,5.27
2018-04-18T11:49:44.072Z,4.10
2018-04-18T11:52:18.455Z,4.27
2018-04-18T11:54:53.100Z,4.30
2018-04-18T11:57:26.974Z,4.97
2018-04-18T12:00:01.320Z,4.40
2018-04-18T12:02:35.174Z,4.57
2018-04-18T12:05:09.057Z,4.20
2018-04-18T12:07:42.878Z,4.40
2018-04-18T12:10:16.846Z,4.50
2018-04-18T12:12:50.671Z,4.03
2018-04-18T12:15:25.103Z,4.23
2018-04-18T12:17:59.586Z,4.27
2018-04-18T12:20:34.138Z,3.77
2018-04-18T12:23:08.135Z,4.20
2018-04-18T12:25:42.762Z,4.20
2018-04-18T12:28:16.622Z,3.90
2018-04-18T12:30:51.078Z,4.07
2018-04-18T12:33:24.867Z,4.20
2018-04-18T12:35:59.485Z,3.87
2018-04-18T12:38:33.579Z,4.03
2018-04-18T12:41:07.384Z,3.77
2018-04-18T12:43:41.992Z,4.07
2018-04-18T12:46:15.683Z,4.23
2018-04-18T12:48:50.337Z,4.40
2018-04-18T12:51:24.778Z,4.53
2018-04-18T12:53:58.694Z,5.80
2018-04-18T12:56:32.483Z,4.57
2018-04-18T12:59:06.559Z,3.90
2018-04-18T13:01:40.354Z,3.67
2018-04-18T13:04:15.086Z,4.27
2018-04-18T13:06:48.687Z,4.97
2018-04-18T13:09:22.527Z,4.83
2018-04-18T13:11:56.299Z,4.70
2018-04-18T13:14:30.132Z,4.83
2018-04-18T13:17:04.084Z,3.73
2018-04-18T13:19:37.891Z,5.20
2018-04-18T13:22:11.886Z,3.37
2018-04-18T13:24:45.776Z,4.43
2018-04-18T13:27:19.654Z,4.10
2018-04-18T13:29:54.283Z,4.03
2018-04-18T13:32:28.886Z,3.90
2018-04-18T13:35:03.466Z,4.70
2018-04-18T13:37:37.127Z,3.90
2018-04-18T13:40:11.737Z,5.53
2018-04-18T13:42:47.364Z,5.23
2018-04-18T13:45:22.035Z,4.87
2018-04-18T13:47:56.736Z,5.10
2018-04-18T13:50:31.367Z,3.23
2018-04-18T13:53:04.939Z,3.37
2018-04-18T13:55:38.723Z,5.40
2018-04-18T13:58:12.496Z,5.60
2018-04-18T14:00:46.312Z,5.17
2018-04-18T14:03:20.323Z,4.33
2018-04-18T14:05:55.659Z,4.70
2018-04-18T14:08:29.372Z,3.30
2018-04-18T14:11:03.967Z,3.70
2018-04-18T14:13:37.661Z,4.13
2018-04-18T14:16:11.455Z,5.00
2018-04-18T14:18:45.321Z,6.00
2018-04-18T14:21:19.873Z,5.70
2018-04-18T14:23:53.925Z,6.30
2018-04-18T14:26:27.788Z,5.47
2018-04-18T14:29:02.462Z,4.70
2018-04-18T14:31:36.978Z,5.63
2018-04-18T14:34:14.559Z,4.87
2018-04-18T14:36:49.187Z,5.20
2018-04-18T14:39:22.966Z,4.40
2018-04-18T14:41:56.800Z,5.00
2018-04-18T14:44:31.455Z,6.17
2018-04-18T14:47:06.138Z,4.70
2018-04-18T14:49:40.697Z,5.23
2018-04-18T14:52:15.297Z,5.97
2018-04-18T14:54:49.223Z,8.23
2018-04-18T14:57:23.732Z,6.33
2018-04-18T14:59:58.273Z,5.13
2018-04-18T15:02:32.354Z,6.07
2018-04-18T15:05:07.798Z,5.20
2018-04-18T15:07:41.515Z,4.60
2018-04-18T15:10:19.123Z,5.40
2018-04-18T15:12:53.514Z,4.17
2018-04-18T15:15:28.375Z,5.00
2018-04-18T15:18:02.127Z,4.33
2018-04-18T15:20:36.021Z,4.70
2018-04-18T15:23:09.823Z,4.40
2018-04-18T15:25:43.736Z,4.83
2018-04-18T15:28:17.508Z,5.30
2018-04-18T15:30:51.262Z,4.43
2018-04-18T15:33:25.818Z,3.67
2018-04-18T15:36:00.522Z,4.00
2018-04-18T15:38:34.366Z,4.40
2018-04-18T15:41:08.221Z,4.60
2018-04-18T15:43:43.728Z,4.47
2018-04-18T15:46:19.123Z,3.80
2018-04-18T15:48:52.900Z,4.03
2018-04-18T15:51:26.756Z,4.90
2018-04-18T15:54:00.576Z,3.73
2018-04-18T15:56:36.399Z,4.10
2018-04-18T15:59:10.963Z,4.20
2018-04-18T16:01:46.708Z,4.47
2018-04-18T16:04:20.571Z,4.60
2018-04-18T16:06:54.484Z,4.00
2018-04-18T16:09:29.319Z,5.00
2018-04-18T16:12:04.904Z,4.70
2018-04-18T16:14:38.701Z,4.73
2018-04-18T16:17:13.373Z,3.93
2018-04-18T16:19:47.155Z,4.30
2018-04-18T16:22:21.786Z,4.60
2018-04-18T16:24:55.607Z,4.77
2018-04-18T16:27:29.467Z,6.87
2018-04-18T16:30:03.318Z,5.60
2018-04-18T16:32:37.907Z,4.40
2018-04-18T16:35:12.446Z,6.10
2018-04-18T16:37:46.275Z,5.03
2018-04-18T16:40:20.127Z,4.57
2018-04-18T16:42:53.829Z,27.17
2018-04-18T16:45:27.642Z,5.40
2018-04-18T16:48:02.096Z,6.60
2018-04-18T16:50:35.970Z,4.83
2018-04-18T16:53:09.765Z,4.80
2018-04-18T16:55:44.438Z,4.10
2018-04-18T16:58:20.047Z,3.97
2018-04-18T17:00:54.215Z,4.33
2018-04-18T17:03:28.027Z,4.60
2018-04-18T17:06:02.000Z,4.30
2018-04-18T17:08:35.719Z,4.23
2018-04-18T17:11:09.544Z,3.63
2018-04-18T17:13:44.866Z,6.13
2018-04-18T17:16:18.650Z,7.33
2018-04-18T17:18:52.359Z,3.83
2018-04-18T17:21:27.145Z,3.67
2018-04-18T17:24:00.887Z,3.77
2018-04-18T17:26:34.786Z,5.57
2018-04-18T17:29:09.620Z,4.10
2018-04-18T17:31:43.390Z,4.53
2018-04-18T17:34:17.488Z,4.20
2018-04-18T17:36:51.148Z,3.70
2018-04-18T17:39:26.287Z,3.93
2018-04-18T17:42:00.063Z,5.17
2018-04-18T17:44:33.904Z,4.07
2018-04-18T17:47:07.735Z,4.47
2018-04-18T17:49:41.613Z,3.50
2018-04-18T17:52:16.327Z,4.67
2018-04-18T17:54:50.208Z,4.17
2018-04-18T17:57:24.061Z,7.20
2018-04-18T17:59:58.769Z,4.40
2018-04-18T18:02:32.545Z,4.80
2018-04-18T18:05:07.142Z,6.83
2018-04-18T18:07:40.754Z,4.60
2018-04-18T18:10:15.446Z,4.17
2018-04-18T18:12:49.369Z,4.17
2018-04-18T18:15:23.252Z,3.70
2018-04-18T18:17:57.055Z,4.33
2018-04-18T18:20:30.876Z,4.50
2018-04-18T18:23:05.686Z,8.30
2018-04-18T18:25:40.221Z,4.77
2018-04-18T18:28:14.055Z,7.90
2018-04-18T18:30:47.798Z,4.50
2018-04-18T18:33:21.655Z,5.77
2018-04-18T18:35:55.871Z,4.50
2018-04-18T18:38:29.536Z,4.97
2018-04-18T18:41:03.394Z,6.20
2018-04-18T18:43:37.174Z,10.03
2018-04-18T18:46:10.918Z,6.33
2018-04-18T18:48:45.503Z,5.70
2018-04-18T18:51:19.396Z,6.10
2018-04-18T18:53:54.022Z,6.70
2018-04-18T18:56:27.810Z,7.37
2018-04-18T18:59:03.398Z,7.37
2018-04-18T19:01:37.211Z,7.75
2018-04-18T19:04:11.714Z,7.45
2018-04-18T19:06:46.679Z,7.40
2018-04-18T19:09:20.483Z,6.78
2018-04-18T19:11:55.408Z,6.68
2018-04-18T19:14:29.236Z,7.45
2018-04-18T19:17:02.934Z,5.90
2018-04-18T19:19:37.414Z,6.87
2018-04-18T19:22:11.965Z,6.70
2018-04-18T19:24:45.831Z,6.57
2018-04-18T19:27:20.375Z,6.60
2018-04-18T19:29:55.012Z,7.00
2018-04-18T19:32:28.739Z,9.23
2018-04-18T19:35:05.168Z,6.15
2018-04-18T19:37:39.024Z,7.75
2018-04-18T19:40:12.834Z,6.28
2018-04-18T19:42:48.028Z,6.78
2018-04-18T19:45:21.774Z,7.75
2018-04-18T19:47:55.503Z,8.57
2018-04-18T19:50:29.402Z,7.12
2018-04-18T19:53:03.862Z,6.72
2018-04-18T19:55:38.417Z,7.20
2018-04-18T19:58:12.207Z,8.35
2018-04-18T20:00:47.680Z,6.50
2018-04-18T20:03:22.880Z,8.27
2018-04-18T20:05:57.525Z,7.53
2018-04-18T20:08:31.411Z,8.38
2018-04-18T20:11:05.231Z,7.82
2018-04-18T20:13:39.059Z,8.93
2018-04-18T20:16:12.891Z,8.50
2018-04-18T20:18:47.449Z,8.05
2018-04-18T20:21:21.182Z,7.50
2018-04-18T20:23:59.853Z,7.43
2018-04-18T20:26:34.440Z,8.18
2018-04-18T20:29:09.035Z,7.65
2018-04-18T20:31:42.883Z,8.27
2018-04-18T20:34:16.619Z,7.60
2018-04-18T20:36:51.320Z,8.30
2018-04-18T20:39:25.070Z,10.65
2018-04-18T20:41:58.954Z,7.80
2018-04-18T20:44:33.486Z,7.95
2018-04-18T20:47:07.535Z,9.25
2018-04-18T20:49:42.239Z,7.95
2018-04-18T20:52:16.190Z,8.50
2018-04-18T20:54:50.768Z,8.00
2018-04-18T20:57:25.306Z,7.57
2018-04-18T20:59:59.144Z,8.60
